createdAt,value
2023-04-20T00:00:08.102Z,95672.00
2023-04-20T00:01:08.220Z,95666.00
2023-04-20T00:02:07.301Z,95652.00
2023-04-20T00:03:07.375Z,95649.00
2023-04-20T00:04:07.518Z,95643.00
2023-04-20T00:05:07.458Z,95645.00
2023-04-20T00:06:08.461Z,95649.00
2023-04-20T00:07:08.512Z,95647.00
2023-04-20T00:08:08.599Z,95647.00
2023-04-20T00:09:07.647Z,95645.00
2023-04-20T00:10:08.713Z,95643.00
2023-04-20T00:11:08.818Z,95641.00
2023-04-20T00:12:07.828Z,95639.00
2023-04-20T00:13:08.890Z,95635.00
2023-04-20T00:14:08.956Z,95637.00
2023-04-20T00:15:09.019Z,95637.00
2023-04-20T00:16:09.059Z,95637.00
2023-04-20T00:17:08.291Z,95635.00
2023-04-20T00:18:08.265Z,95637.00
2023-04-20T00:19:09.262Z,95635.00
2023-04-20T00:20:09.292Z,95631.00
2023-04-20T00:21:09.374Z,95633.00
2023-04-20T00:22:08.421Z,95631.00
2023-04-20T00:23:09.471Z,95629.00
2023-04-20T00:24:09.539Z,95629.00
2023-04-20T00:25:08.584Z,95631.00
2023-04-20T00:26:08.644Z,95631.00
2023-04-20T00:27:09.701Z,95629.00
2023-04-20T00:28:08.752Z,95629.00
2023-04-20T00:29:09.814Z,95625.00
2023-04-20T00:30:09.887Z,95623.00
2023-04-20T00:31:10.055Z,95621.00
2023-04-20T00:32:09.999Z,95617.00
2023-04-20T00:33:10.074Z,95613.00
2023-04-20T00:34:09.124Z,95615.00
2023-04-20T00:35:09.227Z,95611.00
2023-04-20T00:36:09.525Z,95613.00
2023-04-20T00:37:10.484Z,95615.00
2023-04-20T00:38:10.365Z,95611.00
2023-04-20T00:39:10.863Z,95611.00
2023-04-20T00:40:10.482Z,95611.00
2023-04-20T00:41:09.543Z,95607.00
2023-04-20T00:42:09.579Z,95605.00
2023-04-20T00:43:10.595Z,95604.00
2023-04-20T00:44:10.656Z,95602.00
2023-04-20T00:45:09.671Z,95602.00
2023-04-20T00:46:09.726Z,95600.00
2023-04-20T00:47:10.752Z,95598.00
2023-04-20T00:48:10.768Z,95600.00
2023-04-20T00:49:09.828Z,95596.00
2023-04-20T00:50:09.846Z,95596.00
2023-04-20T00:51:10.878Z,95594.00
2023-04-20T00:52:10.925Z,95594.00
2023-04-20T00:53:10.983Z,95594.00
2023-04-20T00:54:10.999Z,95592.00
2023-04-20T00:55:10.031Z,95592.00
2023-04-20T00:56:11.081Z,95588.00
2023-04-20T00:57:10.097Z,95590.00
2023-04-20T00:58:11.131Z,95588.00
2023-04-20T00:59:10.168Z,95588.00
2023-04-20T01:00:10.219Z,95588.00
2023-04-20T01:01:11.384Z,95584.00
2023-04-20T01:02:11.397Z,95582.00
2023-04-20T01:03:11.503Z,95580.00
2023-04-20T01:04:10.459Z,95582.00
2023-04-20T01:05:10.434Z,95578.00
2023-04-20T01:06:11.452Z,95578.00
2023-04-20T01:07:10.488Z,95576.00
2023-04-20T01:08:11.521Z,95578.00
2023-04-20T01:09:11.570Z,95576.00
2023-04-20T01:10:11.619Z,95572.00
2023-04-20T01:11:10.645Z,95572.00
2023-04-20T01:12:11.710Z,95574.00
2023-04-20T01:13:10.761Z,95572.00
2023-04-20T01:14:11.819Z,95572.00
2023-04-20T01:15:10.898Z,95570.00
2023-04-20T01:16:12.100Z,95572.00
2023-04-20T01:17:12.007Z,95572.00
2023-04-20T01:18:12.073Z,95574.00
2023-04-20T01:19:12.142Z,95570.00
2023-04-20T01:20:11.222Z,95568.00
2023-04-20T01:21:11.288Z,95566.00
2023-04-20T01:22:11.484Z,95566.00
2023-04-20T01:23:12.378Z,95562.00
2023-04-20T01:24:11.441Z,95564.00
2023-04-20T01:25:12.502Z,95562.00
2023-04-20T01:26:12.563Z,95560.00
2023-04-20T01:27:12.624Z,95560.00
2023-04-20T01:28:12.678Z,95558.00
2023-04-20T01:29:12.739Z,95560.00
2023-04-20T01:30:11.814Z,95558.00
2023-04-20T01:31:11.905Z,95557.00
2023-04-20T01:32:12.907Z,95558.00
2023-04-20T01:33:11.978Z,95557.00
2023-04-20T01:34:13.059Z,95555.00
2023-04-20T01:35:12.078Z,95553.00
2023-04-20T01:36:12.122Z,95553.00
2023-04-20T01:37:12.372Z,95553.00
2023-04-20T01:38:13.247Z,95555.00
2023-04-20T01:39:12.365Z,95555.00
2023-04-20T01:40:12.349Z,95555.00
2023-04-20T01:41:12.394Z,95553.00
2023-04-20T01:42:13.417Z,95557.00
2023-04-20T01:43:13.469Z,95553.00
2023-04-20T01:44:13.495Z,95553.00
2023-04-20T01:45:12.549Z,95553.00
2023-04-20T01:46:13.648Z,95549.00
2023-04-20T01:47:12.608Z,95549.00
2023-04-20T01:48:12.643Z,95547.00
2023-04-20T01:49:12.676Z,95547.00
2023-04-20T01:50:13.726Z,95549.00
2023-04-20T01:51:13.786Z,95547.00
2023-04-20T01:52:12.836Z,95547.00
2023-04-20T01:53:13.885Z,95545.00
2023-04-20T01:54:13.887Z,95543.00
2023-04-20T01:55:13.919Z,95541.00
2023-04-20T01:56:13.932Z,95541.00
2023-04-20T01:57:12.982Z,95539.00
2023-04-20T01:58:14.017Z,95537.00
2023-04-20T01:59:14.073Z,95537.00
2023-04-20T02:00:14.134Z,95537.00
2023-04-20T02:01:13.214Z,95535.00
2023-04-20T02:02:14.326Z,95535.00
2023-04-20T02:03:14.419Z,95535.00
2023-04-20T02:04:14.369Z,95527.00
2023-04-20T02:05:14.404Z,95533.00
2023-04-20T02:06:14.441Z,95529.00
2023-04-20T02:07:14.481Z,95531.00
2023-04-20T02:08:14.525Z,95531.00
2023-04-20T02:09:14.696Z,95529.00
2023-04-20T02:10:14.596Z,95529.00
2023-04-20T02:11:13.608Z,95531.00
2023-04-20T02:12:14.657Z,95527.00
2023-04-20T02:13:14.647Z,95527.00
2023-04-20T02:14:13.703Z,95525.00
2023-04-20T02:15:14.722Z,95525.00
2023-04-20T02:16:14.757Z,95525.00
2023-04-20T02:17:14.843Z,95525.00
2023-04-20T02:18:14.887Z,95523.00
2023-04-20T02:19:13.912Z,95523.00
2023-04-20T02:20:14.989Z,95523.00
2023-04-20T02:21:14.042Z,95521.00
2023-04-20T02:22:14.128Z,95527.00
2023-04-20T02:23:14.174Z,95521.00
2023-04-20T02:24:15.252Z,95521.00
2023-04-20T02:25:14.353Z,95521.00
2023-04-20T02:26:16.032Z,95523.00
2023-04-20T02:27:15.402Z,95521.00
2023-04-20T02:28:15.626Z,95521.00
2023-04-20T02:29:16.115Z,95521.00
2023-04-20T02:30:14.632Z,95523.00
2023-04-20T02:31:14.654Z,95521.00
2023-04-20T02:32:15.633Z,95521.00
2023-04-20T02:33:15.685Z,95519.00
2023-04-20T02:34:14.708Z,95521.00
2023-04-20T02:35:15.773Z,95519.00
2023-04-20T02:36:15.810Z,95519.00
2023-04-20T02:37:15.833Z,95515.00
2023-04-20T02:38:15.848Z,95513.00
2023-04-20T02:39:16.418Z,95513.00
2023-04-20T02:40:15.944Z,95511.00
2023-04-20T02:41:14.962Z,95511.00
2023-04-20T02:42:14.941Z,95507.00
2023-04-20T02:43:15.977Z,95505.00
2023-04-20T02:44:15.979Z,95505.00
2023-04-20T02:45:15.010Z,95503.00
2023-04-20T02:46:15.071Z,95505.00
2023-04-20T02:47:16.033Z,95505.00
2023-04-20T02:48:15.050Z,95507.00
2023-04-20T02:49:15.306Z,95507.00
2023-04-20T02:50:15.050Z,95507.00
2023-04-20T02:51:16.066Z,95509.00
2023-04-20T02:52:15.072Z,95511.00
2023-04-20T02:53:15.089Z,95513.00
2023-04-20T02:54:15.071Z,95509.00
2023-04-20T02:55:16.083Z,95507.00
2023-04-20T02:56:16.081Z,95507.00
2023-04-20T02:57:15.105Z,95507.00
2023-04-20T02:58:15.075Z,95509.00
2023-04-20T02:59:16.326Z,95505.00
2023-04-20T03:00:15.097Z,95509.00
2023-04-20T03:01:16.135Z,95505.00
2023-04-20T03:02:15.210Z,95503.00
2023-04-20T03:03:16.329Z,95502.00
2023-04-20T03:04:16.272Z,95502.00
2023-04-20T03:05:16.216Z,95500.00
2023-04-20T03:06:15.253Z,95500.00
2023-04-20T03:07:16.638Z,95496.00
2023-04-20T03:08:16.287Z,95494.00
2023-04-20T03:09:16.741Z,95498.00
2023-04-20T03:10:16.808Z,95494.00
2023-04-20T03:11:15.279Z,95490.00
2023-04-20T03:12:15.279Z,95494.00
2023-04-20T03:13:16.307Z,95492.00
2023-04-20T03:14:16.262Z,95492.00
2023-04-20T03:15:16.265Z,95490.00
2023-04-20T03:16:15.303Z,95488.00
2023-04-20T03:17:15.289Z,95492.00
2023-04-20T03:18:15.318Z,95488.00
2023-04-20T03:19:15.472Z,95488.00
2023-04-20T03:20:15.368Z,95490.00
2023-04-20T03:21:15.414Z,95486.00
2023-04-20T03:22:15.424Z,95486.00
2023-04-20T03:23:16.465Z,95482.00
2023-04-20T03:24:15.476Z,95482.00
2023-04-20T03:25:15.536Z,95484.00
2023-04-20T03:26:15.549Z,95482.00
2023-04-20T03:27:15.560Z,95482.00
2023-04-20T03:28:16.575Z,95480.00
2023-04-20T03:29:15.830Z,95480.00
2023-04-20T03:30:15.559Z,95472.00
2023-04-20T03:31:15.612Z,95476.00
2023-04-20T03:32:16.581Z,95474.00
2023-04-20T03:33:15.587Z,95474.00
2023-04-20T03:34:16.618Z,95474.00
2023-04-20T03:35:15.662Z,95472.00
2023-04-20T03:36:16.688Z,95472.00
2023-04-20T03:37:16.728Z,95474.00
2023-04-20T03:38:16.731Z,95476.00
2023-04-20T03:39:17.070Z,95476.00
2023-04-20T03:40:16.484Z,95476.00
2023-04-20T03:41:16.800Z,95476.00
2023-04-20T03:42:15.831Z,95474.00
2023-04-20T03:43:16.813Z,95476.00
2023-04-20T03:44:15.835Z,95476.00
2023-04-20T03:45:15.883Z,95476.00
2023-04-20T03:46:16.959Z,95472.00
2023-04-20T03:47:16.889Z,95472.00
2023-04-20T03:48:15.899Z,95470.00
2023-04-20T03:49:17.185Z,95472.00
2023-04-20T03:50:15.950Z,95474.00
2023-04-20T03:51:16.961Z,95472.00
2023-04-20T03:52:15.985Z,95470.00
2023-04-20T03:53:16.032Z,95472.00
2023-04-20T03:54:17.062Z,95468.00
2023-04-20T03:55:16.062Z,95466.00
2023-04-20T03:56:17.086Z,95468.00
2023-04-20T03:57:16.096Z,95464.00
2023-04-20T03:58:17.122Z,95463.00
2023-04-20T03:59:16.529Z,95464.00
2023-04-20T04:00:17.225Z,95464.00
2023-04-20T04:01:16.241Z,95463.00
2023-04-20T04:02:17.456Z,95463.00
2023-04-20T04:03:17.532Z,95461.00
2023-04-20T04:04:16.596Z,95463.00
2023-04-20T04:05:16.472Z,95463.00
2023-04-20T04:06:16.515Z,95461.00
2023-04-20T04:07:17.583Z,95461.00
2023-04-20T04:08:16.628Z,95461.00
2023-04-20T04:09:16.913Z,95461.00
2023-04-20T04:10:16.737Z,95464.00
2023-04-20T04:11:16.789Z,95461.00
2023-04-20T04:12:17.840Z,95459.00
2023-04-20T04:13:17.853Z,95461.00
2023-04-20T04:14:16.962Z,95455.00
2023-04-20T04:15:16.934Z,95457.00
2023-04-20T04:16:17.956Z,95459.00
2023-04-20T04:17:17.965Z,95459.00
2023-04-20T04:18:17.978Z,95457.00
2023-04-20T04:19:18.154Z,95464.00
2023-04-20T04:20:17.110Z,95461.00
2023-04-20T04:21:17.011Z,95459.00
2023-04-20T04:22:18.005Z,95457.00
2023-04-20T04:23:18.026Z,95459.00
2023-04-20T04:24:17.032Z,95457.00
2023-04-20T04:25:17.058Z,95455.00
2023-04-20T04:26:18.068Z,95457.00
2023-04-20T04:27:18.095Z,95455.00
2023-04-20T04:28:18.198Z,95457.00
2023-04-20T04:29:18.466Z,95457.00
2023-04-20T04:30:17.198Z,95457.00
2023-04-20T04:31:18.298Z,95455.00
2023-04-20T04:32:17.392Z,95455.00
2023-04-20T04:33:17.262Z,95457.00
2023-04-20T04:34:17.285Z,95455.00
2023-04-20T04:35:18.335Z,95457.00
2023-04-20T04:36:17.327Z,95451.00
2023-04-20T04:37:18.325Z,95451.00
2023-04-20T04:38:18.333Z,95453.00
2023-04-20T04:39:18.610Z,95451.00
2023-04-20T04:40:18.372Z,95455.00
2023-04-20T04:41:17.383Z,95453.00
2023-04-20T04:42:18.402Z,95451.00
2023-04-20T04:43:18.423Z,95451.00
2023-04-20T04:44:18.433Z,95451.00
2023-04-20T04:45:18.454Z,95449.00
2023-04-20T04:46:17.483Z,95449.00
2023-04-20T04:47:17.484Z,95449.00
2023-04-20T04:48:18.570Z,95447.00
2023-04-20T04:49:18.742Z,95447.00
2023-04-20T04:50:17.536Z,95449.00
2023-04-20T04:51:18.638Z,95445.00
2023-04-20T04:52:18.574Z,95449.00
2023-04-20T04:53:18.564Z,95449.00
2023-04-20T04:54:18.582Z,95449.00
2023-04-20T04:55:18.601Z,95447.00
2023-04-20T04:56:18.633Z,95447.00
2023-04-20T04:57:17.612Z,95445.00
2023-04-20T04:58:17.604Z,95445.00
2023-04-20T04:59:18.032Z,95445.00
2023-04-20T05:00:18.647Z,95443.00
2023-04-20T05:01:18.749Z,95445.00
2023-04-20T05:02:18.837Z,95443.00
2023-04-20T05:03:17.908Z,95443.00
2023-04-20T05:04:18.959Z,95441.00
2023-04-20T05:05:17.762Z,95441.00
2023-04-20T05:06:18.787Z,95439.00
2023-04-20T05:07:17.816Z,95443.00
2023-04-20T05:08:18.881Z,95441.00
2023-04-20T05:09:19.262Z,95441.00
2023-04-20T05:10:17.887Z,95443.00
2023-04-20T05:11:17.893Z,95443.00
2023-04-20T05:12:18.888Z,95441.00
2023-04-20T05:13:18.892Z,95441.00
2023-04-20T05:14:18.956Z,95443.00
2023-04-20T05:15:17.932Z,95441.00
2023-04-20T05:16:17.933Z,95443.00
2023-04-20T05:17:17.982Z,95443.00
2023-04-20T05:18:18.964Z,95441.00
2023-04-20T05:19:19.267Z,95441.00
2023-04-20T05:20:19.147Z,95443.00
2023-04-20T05:21:18.170Z,95445.00
2023-04-20T05:22:18.164Z,95443.00
2023-04-20T05:23:19.215Z,95445.00
2023-04-20T05:24:19.309Z,95441.00
2023-04-20T05:25:19.325Z,95441.00
2023-04-20T05:26:18.432Z,95441.00
2023-04-20T05:27:18.428Z,95439.00
2023-04-20T05:28:18.502Z,95443.00
2023-04-20T05:29:19.743Z,95437.00
2023-04-20T05:30:21.722Z,95447.00
2023-04-20T05:31:18.662Z,95441.00
2023-04-20T05:32:19.598Z,95443.00
2023-04-20T05:33:19.600Z,95441.00
2023-04-20T05:34:19.580Z,95437.00
2023-04-20T05:35:18.585Z,95439.00
2023-04-20T05:36:19.571Z,95441.00
2023-04-20T05:37:19.509Z,95443.00
2023-04-20T05:38:19.605Z,95445.00
2023-04-20T05:39:19.853Z,95449.00
2023-04-20T05:40:18.579Z,95449.00
2023-04-20T05:41:19.527Z,95449.00
2023-04-20T05:42:19.497Z,95447.00
2023-04-20T05:43:18.513Z,95447.00
2023-04-20T05:44:19.513Z,95445.00
2023-04-20T05:45:19.473Z,95441.00
2023-04-20T05:46:19.544Z,95441.00
2023-04-20T05:47:18.477Z,95441.00
2023-04-20T05:48:19.460Z,95445.00
2023-04-20T05:49:18.764Z,95443.00
2023-04-20T05:50:19.422Z,95443.00
2023-04-20T05:51:19.421Z,95443.00
2023-04-20T05:52:19.539Z,95443.00
2023-04-20T05:53:19.422Z,95447.00
2023-04-20T05:54:18.526Z,95439.00
2023-04-20T05:55:21.391Z,95437.00
2023-04-20T05:56:19.460Z,95437.00
2023-04-20T05:57:19.401Z,95433.00
2023-04-20T05:58:18.432Z,95431.00
2023-04-20T05:59:18.627Z,95431.00
2023-04-20T06:00:19.425Z,95435.00
2023-04-20T06:01:18.449Z,95431.00
2023-04-20T06:02:20.818Z,95433.00
2023-04-20T06:03:19.600Z,95435.00
2023-04-20T06:04:18.809Z,95437.00
2023-04-20T06:05:19.572Z,95439.00
2023-04-20T06:06:19.419Z,95435.00
2023-04-20T06:07:19.394Z,95437.00
2023-04-20T06:08:18.476Z,95439.00
2023-04-20T06:09:19.583Z,95439.00
2023-04-20T06:10:19.502Z,95439.00
2023-04-20T06:11:19.622Z,95435.00
2023-04-20T06:12:18.544Z,95435.00
2023-04-20T06:13:19.458Z,95429.00
2023-04-20T06:14:19.464Z,95431.00
2023-04-20T06:15:19.809Z,95431.00
2023-04-20T06:16:19.513Z,95433.00
2023-04-20T06:17:18.651Z,95431.00
2023-04-20T06:18:20.091Z,95429.00
2023-04-20T06:19:20.390Z,95429.00
2023-04-20T06:20:19.574Z,95431.00
2023-04-20T06:21:19.622Z,95431.00
2023-04-20T06:22:18.603Z,95431.00
2023-04-20T06:23:19.632Z,95433.00
2023-04-20T06:24:19.890Z,95433.00
2023-04-20T06:25:18.713Z,95433.00
2023-04-20T06:26:19.744Z,95433.00
2023-04-20T06:27:20.047Z,95431.00
2023-04-20T06:28:18.884Z,95435.00
2023-04-20T06:29:19.841Z,95433.00
2023-04-20T06:30:19.829Z,95431.00
2023-04-20T06:31:20.007Z,95431.00
2023-04-20T06:32:19.884Z,95433.00
2023-04-20T06:33:19.793Z,95431.00
2023-04-20T06:34:18.781Z,95433.00
2023-04-20T06:35:18.890Z,95433.00
2023-04-20T06:36:19.880Z,95431.00
2023-04-20T06:37:26.366Z,95435.00
2023-04-20T06:38:19.889Z,95437.00
2023-04-20T06:39:20.091Z,95433.00
2023-04-20T06:40:19.866Z,95435.00
2023-04-20T06:41:18.836Z,95437.00
2023-04-20T06:42:19.869Z,95439.00
2023-04-20T06:43:18.808Z,95437.00
2023-04-20T06:44:19.835Z,95435.00
2023-04-20T06:45:19.821Z,95437.00
2023-04-20T06:46:18.849Z,95437.00
2023-04-20T06:47:19.856Z,95437.00
2023-04-20T06:48:31.416Z,95433.00
2023-04-20T06:49:20.005Z,95429.00
2023-04-20T06:50:19.773Z,95427.00
2023-04-20T06:51:19.881Z,95427.00
2023-04-20T06:52:18.762Z,95425.00
2023-04-20T06:53:18.792Z,95423.00
2023-04-20T06:54:19.770Z,95423.00
2023-04-20T06:55:19.762Z,95421.00
2023-04-20T06:56:18.784Z,95423.00
2023-04-20T06:57:19.853Z,95423.00
2023-04-20T06:58:19.738Z,95423.00
2023-04-20T06:59:20.007Z,95421.00
2023-04-20T07:00:19.774Z,95419.00
2023-04-20T07:01:19.843Z,95421.00
2023-04-20T07:02:18.833Z,95417.00
2023-04-20T07:03:19.896Z,95415.00
2023-04-20T07:04:19.792Z,95411.00
2023-04-20T07:05:19.691Z,95409.00
2023-04-20T07:06:19.680Z,95411.00
2023-04-20T07:07:19.692Z,95409.00
2023-04-20T07:08:19.725Z,95409.00
2023-04-20T07:09:20.131Z,95409.00
2023-04-20T07:10:18.886Z,95400.00
2023-04-20T07:11:19.999Z,95400.00
2023-04-20T07:12:19.172Z,95398.00
2023-04-20T07:13:20.219Z,95402.00
2023-04-20T07:14:19.133Z,95400.00
2023-04-20T07:15:19.160Z,95396.00
2023-04-20T07:16:19.269Z,95400.00
2023-04-20T07:17:20.330Z,95400.00
2023-04-20T07:18:20.330Z,95402.00
2023-04-20T07:19:19.454Z,95400.00
2023-04-20T07:20:20.405Z,95400.00
2023-04-20T07:21:20.445Z,95396.00
2023-04-20T07:22:20.475Z,95396.00
2023-04-20T07:23:20.524Z,95400.00
2023-04-20T07:24:20.571Z,95398.00
2023-04-20T07:25:20.600Z,95396.00
2023-04-20T07:26:20.660Z,95394.00
2023-04-20T07:27:19.693Z,95390.00
2023-04-20T07:28:19.715Z,95388.00
2023-04-20T07:29:19.968Z,95388.00
2023-04-20T07:30:19.770Z,95386.00
2023-04-20T07:31:20.848Z,95384.00
2023-04-20T07:32:19.907Z,95382.00
2023-04-20T07:33:20.878Z,95380.00
2023-04-20T07:34:21.017Z,95382.00
2023-04-20T07:35:20.946Z,95378.00
2023-04-20T07:36:19.998Z,95382.00
2023-04-20T07:37:21.035Z,95382.00
2023-04-20T07:38:21.055Z,95382.00
2023-04-20T07:39:21.141Z,95384.00
2023-04-20T07:40:21.152Z,95382.00
2023-04-20T07:41:21.156Z,95384.00
2023-04-20T07:42:21.197Z,95384.00
2023-04-20T07:43:21.283Z,95386.00
2023-04-20T07:44:20.415Z,95388.00
2023-04-20T07:45:21.422Z,95388.00
2023-04-20T07:46:21.484Z,95388.00
2023-04-20T07:47:21.480Z,95388.00
2023-04-20T07:48:21.398Z,95384.00
2023-04-20T07:49:21.411Z,95386.00
2023-04-20T07:50:21.436Z,95388.00
2023-04-20T07:51:21.909Z,95386.00
2023-04-20T07:52:21.537Z,95388.00
2023-04-20T07:53:21.580Z,95388.00
2023-04-20T07:54:21.645Z,95388.00
2023-04-20T07:55:20.669Z,95392.00
2023-04-20T07:56:21.769Z,95390.00
2023-04-20T07:57:21.775Z,95384.00
2023-04-20T07:58:21.798Z,95386.00
2023-04-20T07:59:22.010Z,95382.00
2023-04-20T08:00:21.916Z,95382.00
2023-04-20T08:01:22.006Z,95382.00
2023-04-20T08:02:22.170Z,95380.00
2023-04-20T08:03:22.320Z,95382.00
2023-04-20T08:04:21.304Z,95380.00
2023-04-20T08:05:22.255Z,95380.00
2023-04-20T08:06:21.232Z,95380.00
2023-04-20T08:07:21.346Z,95378.00
2023-04-20T08:08:22.359Z,95380.00
2023-04-20T08:09:22.404Z,95380.00
2023-04-20T08:10:21.463Z,95380.00
2023-04-20T08:11:22.591Z,95380.00
2023-04-20T08:12:21.558Z,95380.00
2023-04-20T08:13:22.643Z,95380.00
2023-04-20T08:14:22.700Z,95378.00
2023-04-20T08:15:22.794Z,95378.00
2023-04-20T08:16:22.918Z,95378.00
2023-04-20T08:17:22.872Z,95374.00
2023-04-20T08:18:21.926Z,95374.00
2023-04-20T08:19:21.959Z,95372.00
2023-04-20T08:20:22.023Z,95370.00
2023-04-20T08:21:25.458Z,95370.00
2023-04-20T08:22:23.251Z,95370.00
2023-04-20T08:23:23.071Z,95370.00
2023-04-20T08:24:22.055Z,95366.00
2023-04-20T08:25:22.933Z,95372.00
2023-04-20T08:26:23.067Z,95368.00
2023-04-20T08:27:22.018Z,95366.00
2023-04-20T08:28:33.564Z,95362.00
2023-04-20T08:29:23.205Z,95360.00
2023-04-20T08:30:23.022Z,95362.00
2023-04-20T08:31:23.081Z,95364.00
2023-04-20T08:32:23.939Z,95362.00
2023-04-20T08:33:23.010Z,95360.00
2023-04-20T08:34:22.001Z,95360.00
2023-04-20T08:35:22.039Z,95362.00
2023-04-20T08:36:22.951Z,95362.00
2023-04-20T08:37:22.976Z,95362.00
2023-04-20T08:38:32.845Z,95364.00
2023-04-20T08:39:22.963Z,95358.00
2023-04-20T08:40:21.954Z,95358.00
2023-04-20T08:41:22.931Z,95356.00
2023-04-20T08:42:22.399Z,95358.00
2023-04-20T08:43:22.219Z,95356.00
2023-04-20T08:44:22.942Z,95353.00
2023-04-20T08:45:21.903Z,95351.00
2023-04-20T08:46:22.938Z,95349.00
2023-04-20T08:47:23.215Z,95345.00
2023-04-20T08:48:22.894Z,95343.00
2023-04-20T08:49:21.911Z,95349.00
2023-04-20T08:50:21.889Z,95347.00
2023-04-20T08:51:22.867Z,95345.00
2023-04-20T08:52:24.297Z,95343.00
2023-04-20T08:53:22.970Z,95345.00
2023-04-20T08:54:24.752Z,95339.00
2023-04-20T08:55:22.962Z,95339.00
2023-04-20T08:56:22.987Z,95341.00
2023-04-20T08:57:22.396Z,95345.00
2023-04-20T08:58:21.990Z,95349.00
2023-04-20T08:59:22.970Z,95351.00
2023-04-20T09:00:23.028Z,95345.00
2023-04-20T09:01:34.373Z,95349.00
2023-04-20T09:02:23.137Z,95347.00
2023-04-20T09:03:23.210Z,95347.00
2023-04-20T09:04:23.527Z,95345.00
2023-04-20T09:05:22.942Z,95345.00
2023-04-20T09:06:23.456Z,95341.00
2023-04-20T09:07:22.900Z,95345.00
2023-04-20T09:08:22.876Z,95343.00
2023-04-20T09:09:21.860Z,95343.00
2023-04-20T09:10:21.927Z,95345.00
2023-04-20T09:11:22.864Z,95347.00
2023-04-20T09:12:22.862Z,95351.00
2023-04-20T09:13:22.852Z,95349.00
2023-04-20T09:14:22.835Z,95349.00
2023-04-20T09:15:22.817Z,95345.00
2023-04-20T09:16:22.849Z,95341.00
2023-04-20T09:17:22.834Z,95337.00
2023-04-20T09:18:22.818Z,95335.00
2023-04-20T09:19:21.982Z,95335.00
2023-04-20T09:20:22.848Z,95333.00
2023-04-20T09:21:21.896Z,95331.00
2023-04-20T09:22:22.880Z,95333.00
2023-04-20T09:23:21.908Z,95329.00
2023-04-20T09:24:22.898Z,95333.00
2023-04-20T09:25:22.889Z,95333.00
2023-04-20T09:26:22.889Z,95329.00
2023-04-20T09:27:22.896Z,95329.00
2023-04-20T09:28:22.909Z,95325.00
2023-04-20T09:29:22.914Z,95327.00
2023-04-20T09:30:23.010Z,95323.00
2023-04-20T09:31:23.043Z,95327.00
2023-04-20T09:32:23.258Z,95327.00
2023-04-20T09:33:23.113Z,95327.00
2023-04-20T09:34:22.115Z,95329.00
2023-04-20T09:35:23.180Z,95327.00
2023-04-20T09:36:23.138Z,95329.00
2023-04-20T09:37:22.180Z,95325.00
2023-04-20T09:38:23.165Z,95327.00
2023-04-20T09:39:23.179Z,95323.00
2023-04-20T09:40:23.195Z,95323.00
2023-04-20T09:41:23.227Z,95323.00
2023-04-20T09:42:23.264Z,95323.00
2023-04-20T09:43:23.279Z,95319.00
2023-04-20T09:44:22.276Z,95319.00
2023-04-20T09:45:23.339Z,95319.00
2023-04-20T09:46:22.480Z,95319.00
2023-04-20T09:47:22.487Z,95321.00
2023-04-20T09:48:23.361Z,95321.00
2023-04-20T09:49:22.366Z,95317.00
2023-04-20T09:50:31.933Z,95321.00
2023-04-20T09:51:23.393Z,95317.00
2023-04-20T09:52:22.442Z,95321.00
2023-04-20T09:53:23.343Z,95321.00
2023-04-20T09:54:22.321Z,95317.00
2023-04-20T09:55:23.297Z,95317.00
2023-04-20T09:56:23.293Z,95319.00
2023-04-20T09:57:23.290Z,95315.00
2023-04-20T09:58:23.290Z,95317.00
2023-04-20T09:59:23.286Z,95313.00
2023-04-20T10:00:22.285Z,95311.00
2023-04-20T10:01:23.361Z,95313.00
2023-04-20T10:02:23.391Z,95311.00
2023-04-20T10:03:22.523Z,95313.00
2023-04-20T10:04:22.777Z,95308.00
2023-04-20T10:05:23.257Z,95309.00
2023-04-20T10:06:23.247Z,95308.00
2023-04-20T10:07:23.502Z,95308.00
2023-04-20T10:08:23.233Z,95308.00
2023-04-20T10:09:23.224Z,95308.00
2023-04-20T10:10:23.211Z,95308.00
2023-04-20T10:11:22.241Z,95308.00
2023-04-20T10:12:23.192Z,95304.00
2023-04-20T10:13:22.179Z,95300.00
2023-04-20T10:14:22.186Z,95298.00
2023-04-20T10:15:23.188Z,95298.00
2023-04-20T10:16:23.580Z,95304.00
2023-04-20T10:17:22.332Z,95304.00
2023-04-20T10:18:23.463Z,95302.00
2023-04-20T10:19:22.138Z,95300.00
2023-04-20T10:20:22.147Z,95298.00
2023-04-20T10:21:23.146Z,95294.00
2023-04-20T10:22:23.173Z,95296.00
2023-04-20T10:23:22.298Z,95298.00
2023-04-20T10:24:23.277Z,95300.00
2023-04-20T10:25:23.114Z,95300.00
2023-04-20T10:26:23.108Z,95296.00
2023-04-20T10:27:23.121Z,95298.00
2023-04-20T10:28:22.174Z,95298.00
2023-04-20T10:29:23.250Z,95294.00
2023-04-20T10:30:22.312Z,95292.00
2023-04-20T10:31:23.386Z,95288.00
2023-04-20T10:32:23.437Z,95290.00
2023-04-20T10:33:22.444Z,95286.00
2023-04-20T10:34:23.500Z,95284.00
2023-04-20T10:35:23.550Z,95284.00
2023-04-20T10:36:23.559Z,95282.00
2023-04-20T10:37:22.949Z,95282.00
2023-04-20T10:38:22.709Z,95282.00
2023-04-20T10:39:23.060Z,95280.00
2023-04-20T10:40:23.751Z,95280.00
2023-04-20T10:41:22.965Z,95278.00
2023-04-20T10:42:23.946Z,95274.00
2023-04-20T10:43:22.946Z,95274.00
2023-04-20T10:44:24.002Z,95270.00
2023-04-20T10:45:22.980Z,95272.00
2023-04-20T10:46:24.025Z,95268.00
2023-04-20T10:47:22.992Z,95270.00
2023-04-20T10:48:23.974Z,95274.00
2023-04-20T10:49:23.980Z,95276.00
2023-04-20T10:50:23.963Z,95276.00
2023-04-20T10:51:23.979Z,95272.00
2023-04-20T10:52:24.000Z,95268.00
2023-04-20T10:53:23.023Z,95268.00
2023-04-20T10:54:24.030Z,95268.00
2023-04-20T10:55:24.111Z,95266.00
2023-04-20T10:56:24.084Z,95266.00
2023-04-20T10:57:24.138Z,95264.00
2023-04-20T10:58:24.134Z,95266.00
2023-04-20T10:59:24.172Z,95266.00
2023-04-20T11:00:24.198Z,95268.00
2023-04-20T11:01:24.259Z,95262.00
2023-04-20T11:02:24.499Z,95262.00
2023-04-20T11:03:24.413Z,95266.00
2023-04-20T11:04:24.382Z,95262.00
2023-04-20T11:05:23.519Z,95264.00
2023-04-20T11:06:24.448Z,95261.00
2023-04-20T11:07:23.483Z,95262.00
2023-04-20T11:08:24.526Z,95257.00
2023-04-20T11:09:23.578Z,95255.00
2023-04-20T11:10:24.627Z,95255.00
2023-04-20T11:11:24.729Z,95255.00
2023-04-20T11:12:23.743Z,95257.00
2023-04-20T11:13:24.782Z,95255.00
2023-04-20T11:14:23.812Z,95253.00
2023-04-20T11:15:24.858Z,95255.00
2023-04-20T11:16:40.747Z,95251.00
2023-04-20T11:17:25.041Z,95251.00
2023-04-20T11:18:24.920Z,95251.00
2023-04-20T11:19:24.930Z,95251.00
2023-04-20T11:20:24.897Z,95247.00
2023-04-20T11:21:24.876Z,95247.00
2023-04-20T11:22:24.890Z,95247.00
2023-04-20T11:23:24.867Z,95247.00
2023-04-20T11:24:23.879Z,95243.00
2023-04-20T11:25:23.965Z,95241.00
2023-04-20T11:26:24.845Z,95239.00
2023-04-20T11:27:24.966Z,95237.00
2023-04-20T11:28:23.881Z,95241.00
2023-04-20T11:29:24.826Z,95241.00
2023-04-20T11:30:24.837Z,95237.00
2023-04-20T11:31:24.905Z,95239.00
2023-04-20T11:32:23.950Z,95239.00
2023-04-20T11:33:23.990Z,95245.00
2023-04-20T11:34:24.792Z,95243.00
2023-04-20T11:35:24.805Z,95243.00
2023-04-20T11:36:24.786Z,95241.00
2023-04-20T11:37:24.800Z,95245.00
2023-04-20T11:38:24.962Z,95243.00
2023-04-20T11:39:24.774Z,95241.00
2023-04-20T11:40:23.766Z,95245.00
2023-04-20T11:41:24.753Z,95247.00
2023-04-20T11:42:23.750Z,95243.00
2023-04-20T11:43:25.001Z,95243.00
2023-04-20T11:44:24.727Z,95245.00